createdAt,value
2024-04-25T00:00:53.000Z,55
2024-04-25T00:02:09.000Z,58.7
2024-04-25T00:03:25.000Z,56.6
2024-04-25T00:04:41.000Z,56.3
2024-04-25T00:05:58.000Z,60.7
2024-04-25T00:07:14.000Z,62.5
2024-04-25T00:08:30.000Z,63
2024-04-25T00:09:46.000Z,58.5
2024-04-25T00:11:02.000Z,66.6
2024-04-25T00:12:18.000Z,65.4
2024-04-25T00:13:34.000Z,61.7
2024-04-25T00:14:51.000Z,60.8
2024-04-25T00:16:07.472Z,63.7
2024-04-25T00:17:22.000Z,63.6
2024-04-25T00:18:38.777Z,55
2024-04-25T00:19:54.000Z,60.2
2024-04-25T00:21:10.000Z,51.3
2024-04-25T00:22:26.000Z,55.4
2024-04-25T00:23:43.000Z,52.4
2024-04-25T00:24:59.000Z,49.3
2024-04-25T00:26:15.000Z,47.8
2024-04-25T00:27:31.000Z,48.9
2024-04-25T00:28:47.000Z,48.6
2024-04-25T00:30:03.000Z,49.9
2024-04-25T00:31:20.000Z,49.3
2024-04-25T00:32:36.000Z,48.9
2024-04-25T00:33:51.000Z,51.4
2024-04-25T00:35:07.000Z,47.5
2024-04-25T00:36:23.000Z,52
2024-04-25T00:37:39.000Z,53.9
2024-04-25T00:38:56.160Z,53.7
2024-04-25T00:40:12.000Z,54
2024-04-25T00:41:28.000Z,55.6
2024-04-25T00:42:44.000Z,57.5
2024-04-25T00:44:00.752Z,53.4
2024-04-25T00:45:16.000Z,60.3
2024-04-25T00:46:32.000Z,62.2
2024-04-25T00:47:48.000Z,66.1
2024-04-25T00:49:05.000Z,68.3
2024-04-25T00:50:20.000Z,62
2024-04-25T00:51:36.000Z,65.8
2024-04-25T00:52:52.000Z,69.6
2024-04-25T00:54:08.000Z,65.8
2024-04-25T00:55:24.000Z,64
2024-04-25T00:56:41.000Z,67.3
2024-04-25T00:57:57.000Z,69.4
2024-04-25T00:59:13.000Z,66.6
2024-04-25T01:00:29.000Z,66
2024-04-25T01:01:45.000Z,68
2024-04-25T01:03:01.000Z,67.7
2024-04-25T01:04:18.118Z,69.1
2024-04-25T01:05:34.000Z,69.6
2024-04-25T01:06:49.000Z,60.2
2024-04-25T01:08:05.578Z,59.4
2024-04-25T01:09:21.000Z,61.9
2024-04-25T01:10:37.877Z,66.5
2024-04-25T01:11:53.000Z,61.7
2024-04-25T01:13:09.000Z,59.6
2024-04-25T01:14:26.000Z,60.3
2024-04-25T01:15:42.000Z,59.5
2024-04-25T01:16:58.000Z,58.8
2024-04-25T01:18:14.762Z,60.3
2024-04-25T01:19:30.000Z,65
2024-04-25T01:20:46.000Z,60.5
2024-04-25T01:22:02.000Z,66.6
2024-04-25T01:23:18.000Z,61.7
2024-04-25T01:24:34.000Z,61.7
2024-04-25T01:25:50.000Z,58.7
2024-04-25T01:27:06.000Z,54.6
2024-04-25T01:28:22.000Z,57.2
2024-04-25T01:29:38.000Z,57.8
2024-04-25T01:30:55.000Z,58.9
2024-04-25T01:32:11.000Z,58.6
2024-04-25T01:33:27.000Z,55.8
2024-04-25T01:34:43.000Z,53.4
2024-04-25T01:35:59.000Z,52
2024-04-25T01:37:15.000Z,53.2
2024-04-25T01:38:31.000Z,49.2
2024-04-25T01:39:47.305Z,52.6
2024-04-25T01:41:03.000Z,52.4
2024-04-25T01:42:19.000Z,54.1
2024-04-25T01:43:35.000Z,57.6
2024-04-25T01:44:51.000Z,66.7
2024-04-25T01:46:07.000Z,60.8
2024-04-25T01:47:22.000Z,62
2024-04-25T01:48:39.000Z,63.1
2024-04-25T01:49:55.000Z,67.6
2024-04-25T01:51:11.000Z,65.5
2024-04-25T01:52:27.000Z,64.8
2024-04-25T01:53:43.000Z,58.8
2024-04-25T01:54:59.000Z,65.1
2024-04-25T01:56:16.000Z,64.8
2024-04-25T01:57:32.000Z,66.9
2024-04-25T01:58:48.000Z,70.8
2024-04-25T02:00:04.000Z,66.3
2024-04-25T02:01:20.000Z,66.4
2024-04-25T02:02:36.000Z,70.7
2024-04-25T02:03:51.000Z,67.8
2024-04-25T02:05:08.000Z,61.9
2024-04-25T02:06:24.000Z,59
2024-04-25T02:07:40.000Z,63
2024-04-25T02:08:56.727Z,62.7
2024-04-25T02:10:12.000Z,60.9
2024-04-25T02:11:28.000Z,59.9
2024-04-25T02:12:45.168Z,53.4
2024-04-25T02:14:01.000Z,58.8
2024-04-25T02:15:17.000Z,60.9
2024-04-25T02:16:33.000Z,61.6
2024-04-25T02:17:49.000Z,61.2
2024-04-25T02:19:05.000Z,61.2
2024-04-25T02:20:20.000Z,61.5
2024-04-25T02:21:36.000Z,66.2
2024-04-25T02:22:53.000Z,67.6
2024-04-25T02:24:09.000Z,66.5
2024-04-25T02:25:25.000Z,65.5
2024-04-25T02:26:41.000Z,72.6
2024-04-25T02:27:57.979Z,66.9
2024-04-25T02:29:13.000Z,72.2
2024-04-25T02:30:30.000Z,79.2
2024-04-25T02:31:46.000Z,71.7
2024-04-25T02:33:02.000Z,66.1
2024-04-25T02:34:18.000Z,67.1
2024-04-25T02:35:34.000Z,62.1
2024-04-25T02:36:49.000Z,60.6
2024-04-25T02:38:06.152Z,59
2024-04-25T02:39:22.000Z,51.5
2024-04-25T02:40:38.000Z,63.1
2024-04-25T02:41:54.000Z,57.4
2024-04-25T02:43:10.000Z,63.4
2024-04-25T02:44:26.000Z,61.6
2024-04-25T02:45:42.000Z,69.3
2024-04-25T02:46:59.186Z,66.8
2024-04-25T02:48:15.332Z,62.5
2024-04-25T02:49:31.000Z,60.2
2024-04-25T02:50:47.628Z,71.3
2024-04-25T02:52:03.000Z,71.6
2024-04-25T02:53:18.000Z,70
2024-04-25T02:54:35.087Z,67.2
2024-04-25T02:55:51.232Z,76
2024-04-25T02:57:07.000Z,67.6
2024-04-25T02:58:23.000Z,67
2024-04-25T02:59:39.000Z,72.8
2024-04-25T03:00:55.000Z,69
2024-04-25T03:02:11.000Z,69.9
2024-04-25T03:03:27.000Z,73.3
2024-04-25T03:04:44.000Z,67.2
2024-04-25T03:06:00.000Z,70.7
2024-04-25T03:07:16.000Z,67
2024-04-25T03:08:32.712Z,65.5
2024-04-25T03:09:47.000Z,71.5
2024-04-25T03:11:03.000Z,66.1
2024-04-25T03:12:19.000Z,60.2
2024-04-25T03:13:36.313Z,61.3
2024-04-25T03:14:52.000Z,62.6
2024-04-25T03:16:08.000Z,65.3
2024-04-25T03:17:24.000Z,56.5
2024-04-25T03:18:40.000Z,60.5
2024-04-25T03:19:56.000Z,64.5
2024-04-25T03:21:12.000Z,69.6
2024-04-25T03:22:29.351Z,85.2
2024-04-25T03:23:45.000Z,82.2
2024-04-25T03:25:01.000Z,85.9
2024-04-25T03:26:16.799Z,81.9
2024-04-25T03:27:32.000Z,80.4
2024-04-25T03:28:48.000Z,82.8
2024-04-25T03:30:05.000Z,75.6
2024-04-25T03:31:21.000Z,81.6
2024-04-25T03:32:37.000Z,96.6
2024-04-25T03:33:53.000Z,101.8
2024-04-25T03:35:09.000Z,119.1
2024-04-25T03:36:25.000Z,131.4
2024-04-25T03:37:41.000Z,110.4
2024-04-25T03:38:58.000Z,105.7
2024-04-25T03:40:14.000Z,91.1
2024-04-25T03:41:30.000Z,91.4
2024-04-25T03:42:45.000Z,81.3
2024-04-25T03:44:01.000Z,78
2024-04-25T03:45:17.000Z,72.6
2024-04-25T03:46:33.000Z,79.4
2024-04-25T03:47:50.000Z,77.8
2024-04-25T03:49:06.000Z,78.5
2024-04-25T03:50:22.000Z,79.1
2024-04-25T03:51:38.000Z,78.2
2024-04-25T03:52:54.000Z,94.5
2024-04-25T03:54:10.000Z,91.7
2024-04-25T03:55:26.000Z,98.9
2024-04-25T03:56:43.000Z,97.2
2024-04-25T03:57:59.000Z,87.3
2024-04-25T03:59:14.000Z,79.8
2024-04-25T04:00:30.000Z,75.9
2024-04-25T04:01:46.000Z,74.9
2024-04-25T04:03:02.000Z,74.3
2024-04-25T04:04:18.000Z,78.9
2024-04-25T04:05:35.000Z,74
2024-04-25T04:06:51.000Z,74.7
2024-04-25T04:08:07.654Z,68.2
2024-04-25T04:09:23.000Z,93.6
2024-04-25T04:10:39.000Z,81.7
2024-04-25T04:11:55.000Z,94.9
2024-04-25T04:13:12.000Z,208.9
2024-04-25T04:14:28.000Z,381.6
2024-04-25T04:15:43.000Z,189.3
2024-04-25T04:16:59.000Z,285.5
2024-04-25T04:18:15.000Z,402
2024-04-25T04:19:31.000Z,327.5
2024-04-25T04:20:48.132Z,416
2024-04-25T04:22:04.000Z,440.1
2024-04-25T04:23:20.000Z,359.8
2024-04-25T04:24:36.000Z,406.7
2024-04-25T04:25:52.000Z,398.1
2024-04-25T04:27:08.000Z,366.6
2024-04-25T04:28:24.000Z,315.7
2024-04-25T04:29:40.000Z,457.3
2024-04-25T04:30:57.302Z,451.6
2024-04-25T04:32:12.000Z,438
2024-04-25T04:33:28.000Z,392.4
2024-04-25T04:34:44.000Z,423.1
2024-04-25T04:36:00.000Z,373.9
2024-04-25T04:37:16.000Z,396.6
2024-04-25T04:38:32.000Z,368.8
2024-04-25T04:39:49.000Z,388.6
2024-04-25T04:41:05.000Z,283.9
2024-04-25T04:42:21.000Z,226.9
2024-04-25T04:43:37.000Z,293.5
2024-04-25T04:44:53.000Z,227.5
2024-04-25T04:46:09.000Z,220.7
2024-04-25T04:47:25.000Z,185.3
2024-04-25T04:48:41.000Z,185.7
2024-04-25T04:49:57.000Z,228.6
2024-04-25T04:51:13.680Z,242.7
2024-04-25T04:52:29.000Z,272.8
2024-04-25T04:53:45.000Z,315.9
2024-04-25T04:55:01.000Z,262.1
2024-04-25T04:56:18.000Z,290.3
2024-04-25T04:57:34.000Z,313.1
2024-04-25T04:58:50.000Z,363.2
2024-04-25T05:00:06.000Z,237.9
2024-04-25T05:01:22.000Z,294.7
2024-04-25T05:02:38.000Z,294.6
2024-04-25T05:03:54.000Z,384.4
2024-04-25T05:05:10.000Z,311.8
2024-04-25T05:06:26.000Z,341.2
2024-04-25T05:07:42.000Z,346.5
2024-04-25T05:08:58.000Z,410.4
2024-04-25T05:10:14.000Z,469.6
2024-04-25T05:11:31.020Z,411.6
2024-04-25T05:12:46.000Z,400.2
2024-04-25T05:14:03.000Z,432.7
2024-04-25T05:15:19.000Z,537.2
2024-04-25T05:16:35.000Z,501.7
2024-04-25T05:17:51.749Z,451.3
2024-04-25T05:19:07.000Z,565.8
2024-04-25T05:20:23.000Z,596.4
2024-04-25T05:21:38.000Z,634.2
2024-04-25T05:22:55.000Z,580.2
2024-04-25T05:24:11.495Z,471.3
2024-04-25T05:25:27.000Z,523.6
2024-04-25T05:26:43.000Z,470.6
2024-04-25T05:27:59.000Z,486.4
2024-04-25T05:29:15.000Z,569.6
2024-04-25T05:30:32.226Z,503.8
2024-04-25T05:31:48.000Z,540.9
2024-04-25T05:33:04.000Z,584.8
2024-04-25T05:34:20.669Z,589.9
2024-04-25T05:35:36.000Z,457.9
2024-04-25T05:36:52.000Z,481.1
2024-04-25T05:38:07.000Z,442.1
2024-04-25T05:39:24.000Z,359.1
2024-04-25T05:40:40.000Z,258.2
2024-04-25T05:41:56.000Z,245.9
2024-04-25T05:43:12.000Z,316.1
2024-04-25T05:44:28.000Z,248.8
2024-04-25T05:45:44.000Z,422.6
2024-04-25T05:47:00.000Z,478.5
2024-04-25T05:48:17.000Z,340.3
2024-04-25T05:49:33.000Z,262.9
2024-04-25T05:50:49.000Z,180.6
2024-04-25T05:52:05.000Z,255.7
2024-04-25T05:53:21.875Z,200.6
2024-04-25T05:54:36.000Z,219.7
2024-04-25T05:55:53.183Z,174.8
2024-04-25T05:57:09.000Z,352.4
2024-04-25T05:58:25.000Z,385.5
2024-04-25T05:59:41.000Z,313.2
2024-04-25T06:00:57.000Z,432.5
2024-04-25T06:02:12.000Z,317.4
2024-04-25T06:03:28.000Z,336.7
2024-04-25T06:04:44.000Z,224.2
2024-04-25T06:06:01.368Z,207.1
2024-04-25T06:07:17.282Z,245.4
2024-04-25T06:08:33.000Z,259.7
2024-04-25T06:09:49.000Z,316.6
2024-04-25T06:11:05.000Z,295.7
2024-04-25T06:12:21.000Z,265.3
2024-04-25T06:13:38.000Z,376.8
2024-04-25T06:14:54.000Z,356.5
2024-04-25T06:16:10.000Z,295.4
2024-04-25T06:17:26.688Z,309.5
2024-04-25T06:18:41.000Z,269.8
2024-04-25T06:19:57.000Z,286.4
2024-04-25T06:21:13.000Z,260.6
2024-04-25T06:22:30.280Z,318.7
2024-04-25T06:23:46.000Z,243.4
2024-04-25T06:25:02.000Z,239.1
2024-04-25T06:26:18.000Z,173.7
2024-04-25T06:27:34.000Z,222.4
2024-04-25T06:28:50.000Z,182.8
2024-04-25T06:30:06.000Z,195.4
2024-04-25T06:31:23.000Z,153.3
2024-04-25T06:32:39.000Z,188.9
2024-04-25T06:33:55.000Z,170.5
2024-04-25T06:35:10.000Z,292.8
2024-04-25T06:36:26.000Z,236.2
2024-04-25T06:37:42.000Z,206.2
2024-04-25T06:38:58.000Z,221.2
2024-04-25T06:40:15.000Z,230.8
2024-04-25T06:41:31.000Z,210.2
2024-04-25T06:42:47.000Z,168.6
2024-04-25T06:44:03.000Z,186.7
2024-04-25T06:45:19.000Z,153.6
2024-04-25T06:46:35.000Z,141.3
2024-04-25T06:47:51.000Z,163
2024-04-25T06:49:08.000Z,141.1
2024-04-25T06:50:24.000Z,124.8
2024-04-25T06:51:39.000Z,126.5
2024-04-25T06:52:55.000Z,121.1
2024-04-25T06:54:11.000Z,121.7
2024-04-25T06:55:27.000Z,120.3
2024-04-25T06:56:44.000Z,107.7
2024-04-25T06:58:00.000Z,107.5
2024-04-25T06:59:16.000Z,95
2024-04-25T07:00:32.000Z,96.7
2024-04-25T07:01:48.000Z,98.7
2024-04-25T07:03:04.981Z,86.1
2024-04-25T07:04:21.122Z,84.7
2024-04-25T07:05:37.000Z,82.8
2024-04-25T07:06:53.000Z,76.7
2024-04-25T07:08:08.000Z,77.2
2024-04-25T07:09:24.000Z,76.8
2024-04-25T07:10:40.868Z,81
2024-04-25T07:11:56.000Z,83.1
2024-04-25T07:13:12.000Z,84.4
2024-04-25T07:14:29.000Z,87.9
2024-04-25T07:15:45.000Z,85.4
2024-04-25T07:17:01.000Z,82.9
2024-04-25T07:18:17.000Z,79.8
2024-04-25T07:19:33.000Z,73.3
2024-04-25T07:20:49.000Z,78.7
2024-04-25T07:22:05.000Z,75.9
2024-04-25T07:23:22.325Z,74.6
2024-04-25T07:24:37.000Z,73.1
2024-04-25T07:25:53.634Z,76
2024-04-25T07:27:09.000Z,72
2024-04-25T07:28:25.000Z,66.7
2024-04-25T07:29:41.000Z,67.6
2024-04-25T07:30:57.000Z,65.5
2024-04-25T07:32:14.000Z,60.6
2024-04-25T07:33:30.000Z,63.5
2024-04-25T07:34:46.000Z,64
2024-04-25T07:36:02.000Z,58
2024-04-25T07:37:18.000Z,54.3
2024-04-25T07:38:34.000Z,53.9
2024-04-25T07:39:51.000Z,55.1
2024-04-25T07:41:06.000Z,54.3
2024-04-25T07:42:22.000Z,56.9
2024-04-25T07:43:38.000Z,64.9
2024-04-25T07:44:54.000Z,54
2024-04-25T07:46:10.000Z,53.7
2024-04-25T07:47:26.000Z,53.3
2024-04-25T07:48:43.000Z,50.3
2024-04-25T07:49:59.000Z,55.3
2024-04-25T07:51:15.000Z,54.6
2024-04-25T07:52:31.000Z,60
2024-04-25T07:53:47.000Z,56.2
2024-04-25T07:55:03.000Z,61
2024-04-25T07:56:19.000Z,55.8
2024-04-25T07:57:35.000Z,57.1
2024-04-25T07:58:51.000Z,53.6
2024-04-25T08:00:07.000Z,53.1
2024-04-25T08:01:23.000Z,55.8
2024-04-25T08:02:39.000Z,50.9
2024-04-25T08:03:55.000Z,45.4
2024-04-25T08:05:12.185Z,44.1
2024-04-25T08:06:28.000Z,45.3
2024-04-25T08:07:44.000Z,48
2024-04-25T08:09:00.000Z,45.4
2024-04-25T08:10:16.000Z,47.7
2024-04-25T08:11:32.000Z,40.2
2024-04-25T08:12:49.055Z,44.7
2024-04-25T08:14:03.000Z,45.7
2024-04-25T08:15:20.360Z,37.1
2024-04-25T08:16:36.521Z,34.5
2024-04-25T08:17:52.000Z,40.3
2024-04-25T08:19:08.000Z,38.9
2024-04-25T08:20:24.958Z,26.5
2024-04-25T08:21:40.000Z,30.5
2024-04-25T08:22:57.000Z,26.8
2024-04-25T08:24:13.000Z,22.8
2024-04-25T08:25:29.000Z,17.2
2024-04-25T08:26:45.000Z,22.3
2024-04-25T08:28:01.822Z,21.7
2024-04-25T08:29:17.000Z,17
2024-04-25T08:30:32.000Z,15.7
2024-04-25T08:31:49.000Z,20.1
2024-04-25T08:33:05.000Z,17.7
2024-04-25T08:34:21.000Z,16.3
2024-04-25T08:35:37.000Z,18.6
2024-04-25T08:36:53.000Z,18.7
2024-04-25T08:38:09.000Z,17.5
2024-04-25T08:39:25.000Z,18.5
2024-04-25T08:40:42.000Z,18.5
2024-04-25T08:41:58.000Z,16.8
2024-04-25T08:43:14.000Z,17.1
2024-04-25T08:44:30.000Z,15.6
2024-04-25T08:45:46.000Z,14.5
2024-04-25T08:47:01.000Z,14.8
2024-04-25T08:48:17.000Z,19.3
2024-04-25T08:49:34.000Z,14.4
2024-04-25T08:50:50.000Z,10.8
2024-04-25T08:52:06.000Z,12.4
2024-04-25T08:53:22.000Z,13.1
2024-04-25T08:54:38.000Z,16.8
2024-04-25T08:55:54.000Z,19.9
2024-04-25T08:57:10.000Z,16.2
2024-04-25T08:58:27.000Z,13
2024-04-25T08:59:43.486Z,11
2024-04-25T09:00:59.634Z,12.5
2024-04-25T09:02:15.000Z,11.6
2024-04-25T09:03:30.939Z,11.9
2024-04-25T09:04:46.000Z,13.4
2024-04-25T09:06:03.000Z,12
2024-04-25T09:07:19.379Z,11.2
2024-04-25T09:08:35.000Z,10.4
2024-04-25T09:09:51.000Z,11.4
2024-04-25T09:11:07.000Z,12.4
2024-04-25T09:12:23.000Z,11.6
2024-04-25T09:13:39.000Z,11.3
2024-04-25T09:14:56.000Z,10.2
2024-04-25T09:16:12.000Z,12.2
2024-04-25T09:17:28.000Z,8.2
2024-04-25T09:18:44.000Z,13.3
2024-04-25T09:19:59.000Z,12.7
2024-04-25T09:21:15.000Z,10.4
2024-04-25T09:22:31.000Z,8.6
2024-04-25T09:23:48.280Z,9.8
2024-04-25T09:25:04.000Z,9.1
2024-04-25T09:26:20.573Z,10
2024-04-25T09:27:36.000Z,10.7
2024-04-25T09:28:52.000Z,11.2
2024-04-25T09:30:08.000Z,11.6
2024-04-25T09:31:24.000Z,10.5
2024-04-25T09:32:41.000Z,9.8
2024-04-25T09:33:57.461Z,8
2024-04-25T09:35:13.000Z,8.4
2024-04-25T09:36:28.000Z,9.1
2024-04-25T09:37:44.000Z,9
2024-04-25T09:39:00.000Z,10
2024-04-25T09:40:16.000Z,9.5
2024-04-25T09:41:33.000Z,11.1
2024-04-25T09:42:49.000Z,7.4
2024-04-25T09:44:05.000Z,6.4
2024-04-25T09:45:21.000Z,9.8
2024-04-25T09:46:37.000Z,9.9
2024-04-25T09:47:53.000Z,9
2024-04-25T09:49:09.000Z,10.3
2024-04-25T09:50:26.000Z,10.3
2024-04-25T09:51:42.000Z,11.1
2024-04-25T09:52:57.000Z,13.3
2024-04-25T09:54:13.000Z,14.7
2024-04-25T09:55:29.000Z,12.2
2024-04-25T09:56:45.000Z,14.1
2024-04-25T09:58:02.000Z,16
2024-04-25T09:59:18.000Z,12.1
2024-04-25T10:00:34.000Z,10.9
2024-04-25T10:01:50.000Z,11.3
2024-04-25T10:03:06.000Z,12.6
2024-04-25T10:04:22.968Z,13.3
2024-04-25T10:05:38.000Z,12.5
2024-04-25T10:06:55.000Z,12.3
2024-04-25T10:08:11.000Z,11.1
2024-04-25T10:09:26.000Z,11.9
2024-04-25T10:10:42.715Z,13
2024-04-25T10:11:58.000Z,15.2
2024-04-25T10:13:14.000Z,10.8
2024-04-25T10:14:30.000Z,11.2
2024-04-25T10:15:47.000Z,13.1
2024-04-25T10:17:02.000Z,10.4
2024-04-25T10:18:18.000Z,9.8
2024-04-25T10:19:34.000Z,11.1
2024-04-25T10:20:50.000Z,11.9
2024-04-25T10:22:06.000Z,11.3
2024-04-25T10:23:22.000Z,9.2
2024-04-25T10:24:39.000Z,12.1
2024-04-25T10:25:55.000Z,11.5
2024-04-25T10:27:11.000Z,11.8
2024-04-25T10:28:27.000Z,9.9
2024-04-25T10:29:43.000Z,12.9
2024-04-25T10:30:59.000Z,13.6
2024-04-25T10:32:15.000Z,13.1
2024-04-25T10:33:31.000Z,13.8
2024-04-25T10:34:47.000Z,11.4
2024-04-25T10:36:03.000Z,12.9
2024-04-25T10:37:19.000Z,9.3
2024-04-25T10:38:35.000Z,10.4
2024-04-25T10:39:51.000Z,9.6
2024-04-25T10:41:08.000Z,8.7
2024-04-25T10:42:24.000Z,7.9
2024-04-25T10:43:40.000Z,12.2
2024-04-25T10:44:56.000Z,10.6
2024-04-25T10:46:12.000Z,10.8
2024-04-25T10:47:28.000Z,11.4
2024-04-25T10:48:44.000Z,12.4
2024-04-25T10:50:00.000Z,10.8
2024-04-25T10:51:16.000Z,8.2
2024-04-25T10:52:32.000Z,9.6
2024-04-25T10:53:48.000Z,11
2024-04-25T10:55:04.000Z,14.3
2024-04-25T10:56:20.000Z,12.2
2024-04-25T10:57:36.000Z,9.8
2024-04-25T10:58:53.000Z,13.8
2024-04-25T11:00:09.000Z,12.1
2024-04-25T11:01:25.000Z,11.8
2024-04-25T11:02:41.000Z,12.5
2024-04-25T11:03:57.885Z,15.2
2024-04-25T11:05:13.000Z,14.3
2024-04-25T11:06:28.000Z,14.7
2024-04-25T11:07:45.000Z,14.5
2024-04-25T11:09:01.000Z,19.6
2024-04-25T11:10:17.000Z,19.4
2024-04-25T11:11:33.000Z,21.7
2024-04-25T11:12:49.000Z,17.2
2024-04-25T11:14:06.063Z,18.2
2024-04-25T11:15:21.000Z,26.6
2024-04-25T11:16:38.000Z,20.2
2024-04-25T11:17:54.000Z,15.8
2024-04-25T11:19:10.000Z,16.5
2024-04-25T11:20:26.000Z,18.4
2024-04-25T11:21:42.000Z,19
2024-04-25T11:22:57.000Z,16.8
2024-04-25T11:24:14.000Z,20.4
2024-04-25T11:25:30.000Z,19.3
2024-04-25T11:26:46.000Z,21.2
2024-04-25T11:28:02.680Z,22.1
2024-04-25T11:29:18.000Z,19
2024-04-25T11:30:34.000Z,23.5
2024-04-25T11:31:50.000Z,18.9
2024-04-25T11:33:07.000Z,17
2024-04-25T11:34:23.000Z,15.7
2024-04-25T11:35:39.000Z,16.5
2024-04-25T11:36:55.706Z,18.2
2024-04-25T11:38:11.000Z,17.9
2024-04-25T11:39:26.000Z,18.8
2024-04-25T11:40:42.000Z,16.9
2024-04-25T11:41:59.000Z,15.2
2024-04-25T11:43:15.000Z,17.9
2024-04-25T11:44:31.000Z,23.8
2024-04-25T11:45:47.000Z,20.3
2024-04-25T11:47:03.000Z,16.2
2024-04-25T11:48:19.000Z,15.2
2024-04-25T11:49:35.000Z,19.6
2024-04-25T11:50:52.000Z,21.8
2024-04-25T11:52:08.000Z,14.1
2024-04-25T11:53:24.000Z,15.5
2024-04-25T11:54:40.000Z,33
2024-04-25T11:55:55.000Z,17.8
2024-04-25T11:57:11.000Z,13.2
2024-04-25T11:58:27.000Z,12.2
2024-04-25T11:59:44.000Z,14.2
2024-04-25T12:01:00.500Z,15.1
2024-04-25T12:02:16.000Z,15
2024-04-25T12:03:32.000Z,13
2024-04-25T12:04:48.000Z,12.2
2024-04-25T12:06:04.000Z,12.7
2024-04-25T12:07:20.000Z,12.5
2024-04-25T12:08:37.000Z,11.3
2024-04-25T12:09:53.000Z,12.4
2024-04-25T12:11:09.659Z,12.3
2024-04-25T12:12:24.000Z,13
2024-04-25T12:13:40.000Z,10.8
2024-04-25T12:14:56.000Z,14.4
2024-04-25T12:16:13.000Z,10.6
2024-04-25T12:17:29.000Z,11
2024-04-25T12:18:45.000Z,10.7
2024-04-25T12:20:01.000Z,14.9
2024-04-25T12:21:17.000Z,13.3
2024-04-25T12:22:33.000Z,12.6
2024-04-25T12:23:49.000Z,15.6
2024-04-25T12:25:06.000Z,12.4
2024-04-25T12:26:22.000Z,14.6
2024-04-25T12:27:38.000Z,14.4
2024-04-25T12:28:53.000Z,12.1
2024-04-25T12:30:09.000Z,14
2024-04-25T12:31:25.000Z,13.6
2024-04-25T12:32:41.000Z,14
2024-04-25T12:33:58.319Z,15.4
2024-04-25T12:35:14.000Z,14.8
2024-04-25T12:36:30.000Z,14.7
2024-04-25T12:37:46.000Z,11
2024-04-25T12:39:02.000Z,11.8
2024-04-25T12:40:18.000Z,13.1
2024-04-25T12:41:34.000Z,14.9
2024-04-25T12:42:51.000Z,8.9
2024-04-25T12:44:07.000Z,12.2
2024-04-25T12:45:22.000Z,10.8
2024-04-25T12:46:38.000Z,12.1
2024-04-25T12:47:54.000Z,13.8
2024-04-25T12:49:10.000Z,11.7
2024-04-25T12:50:27.000Z,10.3
2024-04-25T12:51:43.000Z,10.1
2024-04-25T12:52:59.000Z,12.1
2024-04-25T12:54:15.000Z,9
2024-04-25T12:55:31.000Z,11.1
2024-04-25T12:56:47.000Z,8.6
2024-04-25T12:58:03.000Z,7.6
2024-04-25T12:59:20.000Z,8.6
2024-04-25T13:00:36.000Z,8.7
2024-04-25T13:01:51.000Z,8.8
2024-04-25T13:03:07.000Z,8.7
2024-04-25T13:04:23.000Z,10.8
2024-04-25T13:05:39.000Z,11
2024-04-25T13:06:56.151Z,9.2
2024-04-25T13:08:12.000Z,9.7
2024-04-25T13:09:28.000Z,10.9
2024-04-25T13:10:44.000Z,11.5
2024-04-25T13:12:00.000Z,10.2
2024-04-25T13:13:16.000Z,8.2
2024-04-25T13:14:33.033Z,10.7
2024-04-25T13:15:48.000Z,11.3
2024-04-25T13:17:05.000Z,10.5
2024-04-25T13:18:20.000Z,8.3
2024-04-25T13:19:36.000Z,9.7
2024-04-25T13:20:52.000Z,8.5
2024-04-25T13:22:08.000Z,10.4
2024-04-25T13:23:24.000Z,10.4
2024-04-25T13:24:41.216Z,11.6
2024-04-25T13:25:57.000Z,13
2024-04-25T13:27:13.000Z,17.3
2024-04-25T13:28:29.000Z,14.1
2024-04-25T13:29:45.000Z,15.5
2024-04-25T13:31:01.000Z,15.1
2024-04-25T13:32:17.000Z,12.5
2024-04-25T13:33:34.000Z,12.7
2024-04-25T13:34:49.000Z,12.8
2024-04-25T13:36:05.000Z,13.9
2024-04-25T13:37:21.701Z,17.2
2024-04-25T13:38:37.000Z,16
2024-04-25T13:39:53.000Z,13.6
2024-04-25T13:41:09.000Z,18.7
2024-04-25T13:42:26.000Z,18.5
2024-04-25T13:43:42.000Z,20.1
2024-04-25T13:44:58.584Z,19.5
2024-04-25T13:46:14.000Z,20.3
2024-04-25T13:47:30.000Z,19.6
2024-04-25T13:48:46.000Z,14.8
2024-04-25T13:50:02.000Z,17.6
2024-04-25T13:51:18.000Z,15.9
2024-04-25T13:52:34.000Z,18.3
2024-04-25T13:53:50.000Z,15.7
2024-04-25T13:55:06.000Z,19.4
2024-04-25T13:56:22.000Z,16.4
2024-04-25T13:57:38.000Z,17.7
2024-04-25T13:58:54.000Z,18.1
2024-04-25T14:00:11.000Z,21.2
2024-04-25T14:01:27.000Z,18.6
2024-04-25T14:02:43.000Z,17
2024-04-25T14:03:59.000Z,15.1
2024-04-25T14:05:15.000Z,15
2024-04-25T14:06:31.000Z,13
2024-04-25T14:07:47.000Z,15.6
2024-04-25T14:09:03.000Z,11.6
2024-04-25T14:10:19.000Z,10.9
2024-04-25T14:11:35.000Z,9
2024-04-25T14:12:51.851Z,9.7
2024-04-25T14:14:07.000Z,12.3
2024-04-25T14:15:23.000Z,9.6
2024-04-25T14:16:40.292Z,9
2024-04-25T14:17:56.000Z,9.4
2024-04-25T14:19:12.000Z,9.7
2024-04-25T14:20:28.000Z,9.2
2024-04-25T14:21:44.000Z,9.2
2024-04-25T14:23:00.000Z,12.5
2024-04-25T14:24:15.000Z,11.1
2024-04-25T14:25:32.341Z,11.3
2024-04-25T14:26:48.000Z,10.8
2024-04-25T14:28:04.000Z,20.3
2024-04-25T14:29:20.000Z,11.7
2024-04-25T14:30:36.000Z,15
2024-04-25T14:31:51.000Z,10.9
2024-04-25T14:33:08.000Z,13.6
2024-04-25T14:34:24.000Z,10.9
2024-04-25T14:35:40.000Z,14.4
2024-04-25T14:36:56.000Z,10.3
2024-04-25T14:38:12.000Z,10.3
2024-04-25T14:39:28.000Z,10.6
2024-04-25T14:40:45.120Z,10.8
2024-04-25T14:42:01.000Z,13.8
2024-04-25T14:43:17.000Z,11.2
2024-04-25T14:44:33.000Z,10.3
2024-04-25T14:45:49.713Z,9.1
2024-04-25T14:47:05.000Z,16.9
2024-04-25T14:48:20.000Z,10.4
2024-04-25T14:49:36.000Z,9.1
2024-04-25T14:50:53.000Z,9.1
2024-04-25T14:52:09.000Z,8.6
2024-04-25T14:53:25.000Z,11
2024-04-25T14:54:41.000Z,9.6
2024-04-25T14:55:57.000Z,10
2024-04-25T14:57:13.000Z,9.6
2024-04-25T14:58:29.000Z,10.8
2024-04-25T14:59:46.000Z,8.2
2024-04-25T15:01:02.000Z,9.3
2024-04-25T15:02:18.633Z,9.2
2024-04-25T15:03:34.000Z,10.5
2024-04-25T15:04:49.000Z,10.9
2024-04-25T15:06:05.000Z,10.1
2024-04-25T15:07:22.000Z,10.6
2024-04-25T15:08:38.000Z,11.7
2024-04-25T15:09:54.000Z,10.5
2024-04-25T15:11:10.000Z,9.9
2024-04-25T15:12:26.000Z,9.1
2024-04-25T15:13:42.000Z,9
2024-04-25T15:14:58.000Z,8
2024-04-25T15:16:15.000Z,7.8
2024-04-25T15:17:31.000Z,11.9
2024-04-25T15:18:47.000Z,8.3
2024-04-25T15:20:03.000Z,9.4
2024-04-25T15:21:18.000Z,9.6
2024-04-25T15:22:34.000Z,9.7
2024-04-25T15:23:50.000Z,10.8
2024-04-25T15:25:07.000Z,8.7
2024-04-25T15:26:23.000Z,8.1
2024-04-25T15:27:39.000Z,8.7
2024-04-25T15:28:55.000Z,11.6
2024-04-25T15:30:11.896Z,8.8
2024-04-25T15:31:27.000Z,8.7
2024-04-25T15:32:43.000Z,8
2024-04-25T15:34:00.000Z,7.7
2024-04-25T15:35:16.000Z,8.3
2024-04-25T15:36:32.000Z,8.2
2024-04-25T15:37:47.000Z,8.3
2024-04-25T15:39:03.000Z,11
2024-04-25T15:40:19.000Z,9.2
2024-04-25T15:41:36.000Z,8.3
2024-04-25T15:42:52.000Z,7.6
2024-04-25T15:44:08.000Z,10.8
2024-04-25T15:45:24.000Z,10.3
2024-04-25T15:46:40.000Z,8.4
2024-04-25T15:47:56.000Z,9.2
2024-04-25T15:49:12.000Z,8.3
2024-04-25T15:50:29.000Z,10.1
2024-04-25T15:51:45.000Z,9.4
2024-04-25T15:53:01.000Z,12.8
2024-04-25T15:54:16.000Z,10.7
2024-04-25T15:55:32.000Z,8.4
2024-04-25T15:56:49.011Z,12.9
2024-04-25T15:58:05.170Z,9.4
2024-04-25T15:59:21.000Z,7.7
2024-04-25T16:00:37.000Z,7.3
2024-04-25T16:01:53.000Z,8.7
2024-04-25T16:03:09.000Z,9.3
2024-04-25T16:04:25.893Z,7.9
2024-04-25T16:05:41.000Z,7.8
2024-04-25T16:06:58.187Z,8
2024-04-25T16:08:14.000Z,9.5
2024-04-25T16:09:30.000Z,9
2024-04-25T16:10:45.000Z,8.2
2024-04-25T16:12:01.000Z,8.5
2024-04-25T16:13:17.000Z,9.9
2024-04-25T16:14:33.000Z,9.8
2024-04-25T16:15:50.000Z,8
2024-04-25T16:17:06.000Z,9.9
2024-04-25T16:18:22.000Z,13.1
2024-04-25T16:19:38.000Z,10.2
2024-04-25T16:20:54.000Z,11
2024-04-25T16:22:10.000Z,11.4
2024-04-25T16:23:26.000Z,9.5
2024-04-25T16:24:43.000Z,8.9
2024-04-25T16:25:59.000Z,11.6
2024-04-25T16:27:14.000Z,8.4
2024-04-25T16:28:30.000Z,8.4
2024-04-25T16:29:46.000Z,6.8
2024-04-25T16:31:02.000Z,7.9
2024-04-25T16:32:18.000Z,7.9
2024-04-25T16:33:35.000Z,7.7
2024-04-25T16:34:51.000Z,8.3
2024-04-25T16:36:07.000Z,7
2024-04-25T16:37:23.741Z,5.8
2024-04-25T16:38:39.888Z,6.8
2024-04-25T16:39:55.000Z,7.4
2024-04-25T16:41:11.000Z,6.7
2024-04-25T16:42:28.326Z,7.1
2024-04-25T16:43:43.000Z,6.1
2024-04-25T16:44:59.000Z,6.2
2024-04-25T16:46:15.000Z,7.6
2024-04-25T16:47:31.000Z,7.2
2024-04-25T16:48:47.000Z,7.1
2024-04-25T16:50:04.000Z,8
2024-04-25T16:51:20.000Z,7.5
2024-04-25T16:52:36.000Z,7.6
2024-04-25T16:53:52.000Z,7.5
2024-04-25T16:55:08.815Z,6.9
2024-04-25T16:56:24.000Z,7.2
2024-04-25T16:57:40.000Z,6.5
2024-04-25T16:58:57.252Z,9.7